McHenry, Mississippi
Current Conditions -  °F | °C
As of 1:53 PM on Thursday 27 Nov 2014 (Local Time) from KGPT Reporting Station
Clear Clear  
Wind Chill: 16°   Ceiling: Unl
Heat Index: 16°   Visibility: 10mi
Dew Point: -2°   Wind: 17mph
Humidity: 31%   Direction: 360°N
Pressure: 30.36"   Gusts: NA
Location:  30.71°N, 89.14°W
Report Text: KGPT 271953Z 36015KT 10SM CLR 16/M02 A3036 RMK AO2 SLP279 T01561017 PNO $
Loading
Personal Weather Stations






























Interactive Weather Map New forecast layout! Learn more

10-Day Weather Forecast

Advertisements
Track Severe Weather on mobile